sensor_id;sensor_type;location;lat;lon;timestamp;P1;durP1;ratioP1;P2;durP2;ratioP2
75520;SDS011;64102;48.628;9.002;2022-10-31T00:03:47;2.88;;;0.22;;
75520;SDS011;64102;48.628;9.002;2022-10-31T00:06:12;2.50;;;0.10;;
75520;SDS011;64102;48.628;9.002;2022-10-31T00:08:38;3.50;;;0.25;;
75520;SDS011;64102;48.628;9.002;2022-10-31T00:11:07;2.97;;;0.30;;
75520;SDS011;64102;48.628;9.002;2022-10-31T00:13:33;2.85;;;0.10;;
75520;SDS011;64102;48.628;9.002;2022-10-31T00:15:59;1.48;;;0.22;;
75520;SDS011;64102;48.628;9.002;2022-10-31T00:18:24;0.70;;;0.03;;
75520;SDS011;64102;48.628;9.002;2022-10-31T00:20:57;2.88;;;0.32;;
75520;SDS011;64102;48.628;9.002;2022-10-31T00:23:23;2.03;;;0.30;;
75520;SDS011;64102;48.628;9.002;2022-10-31T00:25:49;1.53;;;0.10;;
75520;SDS011;64102;48.628;9.002;2022-10-31T00:28:14;2.72;;;0.10;;
75520;SDS011;64102;48.628;9.002;2022-10-31T00:30:39;1.60;;;0.00;;
75520;SDS011;64102;48.628;9.002;2022-10-31T00:33:05;0.90;;;0.00;;
75520;SDS011;64102;48.628;9.002;2022-10-31T00:35:30;2.47;;;0.40;;
75520;SDS011;64102;48.628;9.002;2022-10-31T00:37:56;3.53;;;0.30;;
75520;SDS011;64102;48.628;9.002;2022-10-31T00:40:21;2.60;;;0.20;;
75520;SDS011;64102;48.628;9.002;2022-10-31T00:42:46;1.80;;;0.10;;
75520;SDS011;64102;48.628;9.002;2022-10-31T00:45:12;2.30;;;0.20;;
75520;SDS011;64102;48.628;9.002;2022-10-31T00:47:37;2.42;;;0.30;;
75520;SDS011;64102;48.628;9.002;2022-10-31T00:50:03;1.77;;;0.10;;
75520;SDS011;64102;48.628;9.002;2022-10-31T00:52:30;2.58;;;0.15;;
75520;SDS011;64102;48.628;9.002;2022-10-31T00:54:55;2.72;;;0.25;;
75520;SDS011;64102;48.628;9.002;2022-10-31T00:57:20;3.97;;;0.37;;
75520;SDS011;64102;48.628;9.002;2022-10-31T00:59:46;2.47;;;0.10;;
75520;SDS011;64102;48.628;9.002;2022-10-31T01:02:11;2.10;;;0.10;;
75520;SDS011;64102;48.628;9.002;2022-10-31T01:04:36;7.23;;;0.20;;
75520;SDS011;64102;48.628;9.002;2022-10-31T01:07:02;3.03;;;0.30;;
75520;SDS011;64102;48.628;9.002;2022-10-31T01:09:27;3.53;;;0.22;;
75520;SDS011;64102;48.628;9.002;2022-10-31T01:11:52;2.17;;;0.00;;
75520;SDS011;64102;48.628;9.002;2022-10-31T01:14:18;1.88;;;0.22;;
75520;SDS011;64102;48.628;9.002;2022-10-31T01:16:43;1.95;;;0.40;;
75520;SDS011;64102;48.628;9.002;2022-10-31T01:19:08;3.13;;;0.23;;
75520;SDS011;64102;48.628;9.002;2022-10-31T01:21:34;7.27;;;0.20;;
75520;SDS011;64102;48.628;9.002;2022-10-31T01:23:59;1.27;;;0.10;;
75520;SDS011;64102;48.628;9.002;2022-10-31T01:26:28;2.42;;;0.25;;
75520;SDS011;64102;48.628;9.002;2022-10-31T01:31:31;1.08;;;0.10;;
75520;SDS011;64102;48.628;9.002;2022-10-31T01:33:58;1.45;;;0.10;;
75520;SDS011;64102;48.628;9.002;2022-10-31T01:36:26;3.08;;;0.20;;
75520;SDS011;64102;48.628;9.002;2022-10-31T01:38:53;1.83;;;0.32;;
75520;SDS011;64102;48.628;9.002;2022-10-31T01:41:22;2.40;;;0.10;;
75520;SDS011;64102;48.628;9.002;2022-10-31T01:44:01;1.27;;;0.00;;
75520;SDS011;64102;48.628;9.002;2022-10-31T01:46:29;2.05;;;0.20;;
75520;SDS011;64102;48.628;9.002;2022-10-31T01:48:59;1.67;;;0.10;;
75520;SDS011;64102;48.628;9.002;2022-10-31T01:51:28;1.88;;;0.10;;
75520;SDS011;64102;48.628;9.002;2022-10-31T01:53:59;2.80;;;0.15;;
75520;SDS011;64102;48.628;9.002;2022-10-31T01:56:29;3.50;;;0.30;;
75520;SDS011;64102;48.628;9.002;2022-10-31T01:59:04;1.48;;;0.15;;
75520;SDS011;64102;48.628;9.002;2022-10-31T02:01:36;2.33;;;0.20;;
75520;SDS011;64102;48.628;9.002;2022-10-31T02:04:02;3.58;;;0.30;;
75520;SDS011;64102;48.628;9.002;2022-10-31T02:06:51;2.78;;;0.65;;
75520;SDS011;64102;48.628;9.002;2022-10-31T02:09:20;1.63;;;0.30;;
75520;SDS011;64102;48.628;9.002;2022-10-31T02:11:49;1.33;;;0.10;;
75520;SDS011;64102;48.628;9.002;2022-10-31T02:14:17;2.15;;;0.10;;
75520;SDS011;64102;48.628;9.002;2022-10-31T02:16:43;1.27;;;0.00;;
75520;SDS011;64102;48.628;9.002;2022-10-31T02:19:08;2.50;;;0.10;;
75520;SDS011;64102;48.628;9.002;2022-10-31T02:21:47;1.05;;;0.05;;
75520;SDS011;64102;48.628;9.002;2022-10-31T02:37:36;1.23;;;0.00;;
75520;SDS011;64102;48.628;9.002;2022-10-31T02:40:15;1.80;;;0.30;;
75520;SDS011;64102;48.628;9.002;2022-10-31T02:45:24;1.88;;;0.28;;
75520;SDS011;64102;48.628;9.002;2022-10-31T02:47:55;8.10;;;0.50;;
75520;SDS011;64102;48.628;9.002;2022-10-31T02:50:30;3.83;;;0.40;;
75520;SDS011;64102;48.628;9.002;2022-10-31T02:52:58;2.53;;;0.20;;
75520;SDS011;64102;48.628;9.002;2022-10-31T02:57:52;2.50;;;0.52;;
75520;SDS011;64102;48.628;9.002;2022-10-31T03:00:26;1.55;;;0.30;;
75520;SDS011;64102;48.628;9.002;2022-10-31T03:05:35;1.87;;;0.10;;
75520;SDS011;64102;48.628;9.002;2022-10-31T03:11:07;1.45;;;0.40;;
75520;SDS011;64102;48.628;9.002;2022-10-31T03:19:17;1.83;;;0.30;;
75520;SDS011;64102;48.628;9.002;2022-10-31T03:21:53;1.38;;;0.05;;
75520;SDS011;64102;48.628;9.002;2022-10-31T03:24:41;1.05;;;0.10;;
75520;SDS011;64102;48.628;9.002;2022-10-31T03:27:08;1.15;;;0.10;;
75520;SDS011;64102;48.628;9.002;2022-10-31T03:29:37;2.00;;;0.20;;
75520;SDS011;64102;48.628;9.002;2022-10-31T03:32:09;1.85;;;0.17;;
75520;SDS011;64102;48.628;9.002;2022-10-31T03:34:42;1.92;;;0.10;;
75520;SDS011;64102;48.628;9.002;2022-10-31T03:37:10;1.77;;;0.30;;
75520;SDS011;64102;48.628;9.002;2022-10-31T03:39:39;2.10;;;0.10;;
75520;SDS011;64102;48.628;9.002;2022-10-31T03:42:08;2.90;;;0.10;;
75520;SDS011;64102;48.628;9.002;2022-10-31T03:44:38;2.05;;;0.20;;
75520;SDS011;64102;48.628;9.002;2022-10-31T03:47:07;2.22;;;0.10;;
75520;SDS011;64102;48.628;9.002;2022-10-31T03:49:33;0.45;;;0.00;;
75520;SDS011;64102;48.628;9.002;2022-10-31T03:54:58;0.95;;;0.10;;
75520;SDS011;64102;48.628;9.002;2022-10-31T04:00:18;0.90;;;0.10;;
75520;SDS011;64102;48.628;9.002;2022-10-31T04:05:23;2.65;;;0.10;;
75520;SDS011;64102;48.628;9.002;2022-10-31T04:07:50;1.73;;;0.17;;
75520;SDS011;64102;48.628;9.002;2022-10-31T04:12:48;1.45;;;0.10;;
75520;SDS011;64102;48.628;9.002;2022-10-31T04:15:18;1.23;;;0.08;;
75520;SDS011;64102;48.628;9.002;2022-10-31T04:17:45;2.15;;;0.30;;
75520;SDS011;64102;48.628;9.002;2022-10-31T04:20:17;3.50;;;0.35;;
75520;SDS011;64102;48.628;9.002;2022-10-31T04:22:43;2.50;;;0.40;;
75520;SDS011;64102;48.628;9.002;2022-10-31T04:25:08;1.40;;;0.20;;
75520;SDS011;64102;48.628;9.002;2022-10-31T04:27:33;2.70;;;0.37;;
75520;SDS011;64102;48.628;9.002;2022-10-31T04:29:59;3.03;;;0.10;;
75520;SDS011;64102;48.628;9.002;2022-10-31T04:32:25;2.90;;;0.17;;
75520;SDS011;64102;48.628;9.002;2022-10-31T04:34:50;3.60;;;0.40;;
75520;SDS011;64102;48.628;9.002;2022-10-31T04:37:15;1.47;;;0.20;;
75520;SDS011;64102;48.628;9.002;2022-10-31T04:39:41;2.90;;;0.33;;
75520;SDS011;64102;48.628;9.002;2022-10-31T04:42:06;1.20;;;0.10;;
75520;SDS011;64102;48.628;9.002;2022-10-31T04:44:31;1.65;;;0.10;;
75520;SDS011;64102;48.628;9.002;2022-10-31T04:46:57;1.43;;;0.10;;
75520;SDS011;64102;48.628;9.002;2022-10-31T04:49:22;2.30;;;0.10;;
75520;SDS011;64102;48.628;9.002;2022-10-31T04:51:47;0.22;;;0.00;;
75520;SDS011;64102;48.628;9.002;2022-10-31T04:54:13;2.75;;;0.90;;
75520;SDS011;64102;48.628;9.002;2022-10-31T04:56:38;1.30;;;0.10;;
75520;SDS011;64102;48.628;9.002;2022-10-31T04:59:03;1.73;;;0.13;;
75520;SDS011;64102;48.628;9.002;2022-10-31T05:01:29;2.00;;;0.07;;
75520;SDS011;64102;48.628;9.002;2022-10-31T05:03:54;1.73;;;0.15;;
75520;SDS011;64102;48.628;9.002;2022-10-31T05:06:20;3.00;;;0.20;;
75520;SDS011;64102;48.628;9.002;2022-10-31T05:08:45;3.33;;;0.40;;
75520;SDS011;64102;48.628;9.002;2022-10-31T05:11:10;1.08;;;0.10;;
75520;SDS011;64102;48.628;9.002;2022-10-31T05:13:36;2.70;;;0.30;;
75520;SDS011;64102;48.628;9.002;2022-10-31T05:16:01;3.22;;;0.35;;
75520;SDS011;64102;48.628;9.002;2022-10-31T05:18:27;0.20;;;0.00;;
75520;SDS011;64102;48.628;9.002;2022-10-31T05:20:53;2.58;;;0.40;;
75520;SDS011;64102;48.628;9.002;2022-10-31T05:23:18;2.90;;;0.30;;
75520;SDS011;64102;48.628;9.002;2022-10-31T05:25:43;1.63;;;0.10;;
75520;SDS011;64102;48.628;9.002;2022-10-31T05:28:09;3.60;;;0.30;;
75520;SDS011;64102;48.628;9.002;2022-10-31T05:30:34;1.97;;;0.17;;
75520;SDS011;64102;48.628;9.002;2022-10-31T05:33:00;3.63;;;0.45;;
75520;SDS011;64102;48.628;9.002;2022-10-31T05:35:26;1.88;;;0.10;;
75520;SDS011;64102;48.628;9.002;2022-10-31T05:37:54;3.05;;;0.35;;
75520;SDS011;64102;48.628;9.002;2022-10-31T05:40:19;1.27;;;0.17;;
75520;SDS011;64102;48.628;9.002;2022-10-31T05:42:46;5.03;;;0.35;;
75520;SDS011;64102;48.628;9.002;2022-10-31T05:45:15;1.33;;;0.45;;
75520;SDS011;64102;48.628;9.002;2022-10-31T05:47:42;3.92;;;0.70;;
75520;SDS011;64102;48.628;9.002;2022-10-31T05:50:14;1.75;;;0.10;;
75520;SDS011;64102;48.628;9.002;2022-10-31T05:52:39;5.05;;;0.40;;
75520;SDS011;64102;48.628;9.002;2022-10-31T05:55:05;2.57;;;0.37;;
75520;SDS011;64102;48.628;9.002;2022-10-31T05:57:31;2.53;;;0.50;;
75520;SDS011;64102;48.628;9.002;2022-10-31T05:59:57;1.27;;;0.20;;
75520;SDS011;64102;48.628;9.002;2022-10-31T06:02:22;1.50;;;0.20;;
75520;SDS011;64102;48.628;9.002;2022-10-31T06:04:48;1.35;;;0.25;;
75520;SDS011;64102;48.628;9.002;2022-10-31T06:07:13;4.00;;;0.20;;
75520;SDS011;64102;48.628;9.002;2022-10-31T06:09:38;2.17;;;0.30;;
75520;SDS011;64102;48.628;9.002;2022-10-31T06:12:04;0.70;;;0.03;;
75520;SDS011;64102;48.628;9.002;2022-10-31T06:14:29;5.43;;;0.10;;
75520;SDS011;64102;48.628;9.002;2022-10-31T06:16:55;2.83;;;0.20;;
75520;SDS011;64102;48.628;9.002;2022-10-31T06:19:20;2.47;;;0.38;;
75520;SDS011;64102;48.628;9.002;2022-10-31T06:21:46;1.85;;;0.10;;
75520;SDS011;64102;48.628;9.002;2022-10-31T06:24:11;3.73;;;0.40;;
75520;SDS011;64102;48.628;9.002;2022-10-31T06:26:37;1.75;;;0.13;;
75520;SDS011;64102;48.628;9.002;2022-10-31T06:29:02;1.60;;;0.03;;
75520;SDS011;64102;48.628;9.002;2022-10-31T06:31:31;2.78;;;0.40;;
75520;SDS011;64102;48.628;9.002;2022-10-31T06:33:56;1.23;;;0.00;;
75520;SDS011;64102;48.628;9.002;2022-10-31T06:36:21;1.55;;;0.03;;
75520;SDS011;64102;48.628;9.002;2022-10-31T06:38:47;1.27;;;0.10;;
75520;SDS011;64102;48.628;9.002;2022-10-31T06:41:12;6.07;;;0.13;;
75520;SDS011;64102;48.628;9.002;2022-10-31T06:43:38;3.70;;;0.20;;
75520;SDS011;64102;48.628;9.002;2022-10-31T06:46:03;4.90;;;0.23;;
75520;SDS011;64102;48.628;9.002;2022-10-31T06:48:30;5.15;;;0.20;;
75520;SDS011;64102;48.628;9.002;2022-10-31T06:50:59;3.97;;;0.20;;
75520;SDS011;64102;48.628;9.002;2022-10-31T06:53:25;4.88;;;0.30;;
75520;SDS011;64102;48.628;9.002;2022-10-31T06:55:55;3.70;;;0.30;;
75520;SDS011;64102;48.628;9.002;2022-10-31T06:58:21;3.72;;;0.30;;
75520;SDS011;64102;48.628;9.002;2022-10-31T07:00:46;4.68;;;0.20;;
75520;SDS011;64102;48.628;9.002;2022-10-31T07:03:12;3.13;;;0.20;;
75520;SDS011;64102;48.628;9.002;2022-10-31T07:05:45;1.63;;;0.10;;
75520;SDS011;64102;48.628;9.002;2022-10-31T07:08:11;3.83;;;0.30;;
75520;SDS011;64102;48.628;9.002;2022-10-31T07:10:38;3.70;;;0.60;;
75520;SDS011;64102;48.628;9.002;2022-10-31T07:13:06;7.13;;;0.50;;
75520;SDS011;64102;48.628;9.002;2022-10-31T07:15:41;3.42;;;0.35;;
75520;SDS011;64102;48.628;9.002;2022-10-31T07:18:09;4.43;;;0.43;;
75520;SDS011;64102;48.628;9.002;2022-10-31T07:20:35;4.70;;;0.43;;
75520;SDS011;64102;48.628;9.002;2022-10-31T07:23:01;4.10;;;0.47;;
75520;SDS011;64102;48.628;9.002;2022-10-31T07:25:27;3.78;;;0.47;;
75520;SDS011;64102;48.628;9.002;2022-10-31T07:27:52;6.80;;;0.40;;
75520;SDS011;64102;48.628;9.002;2022-10-31T07:30:18;5.35;;;0.43;;
75520;SDS011;64102;48.628;9.002;2022-10-31T07:32:44;6.20;;;0.70;;
75520;SDS011;64102;48.628;9.002;2022-10-31T07:35:14;4.10;;;0.35;;
75520;SDS011;64102;48.628;9.002;2022-10-31T07:37:42;6.72;;;0.60;;
75520;SDS011;64102;48.628;9.002;2022-10-31T07:40:08;4.78;;;0.30;;
75520;SDS011;64102;48.628;9.002;2022-10-31T07:42:38;3.47;;;0.30;;
75520;SDS011;64102;48.628;9.002;2022-10-31T07:45:04;3.05;;;0.30;;
75520;SDS011;64102;48.628;9.002;2022-10-31T07:50:20;4.53;;;0.40;;
75520;SDS011;64102;48.628;9.002;2022-10-31T07:53:00;5.93;;;0.40;;
75520;SDS011;64102;48.628;9.002;2022-10-31T07:55:34;3.25;;;0.22;;
75520;SDS011;64102;48.628;9.002;2022-10-31T07:58:00;3.53;;;0.30;;
75520;SDS011;64102;48.628;9.002;2022-10-31T08:00:45;2.85;;;0.40;;
75520;SDS011;64102;48.628;9.002;2022-10-31T08:03:15;3.55;;;0.30;;
75520;SDS011;64102;48.628;9.002;2022-10-31T08:05:42;3.83;;;0.35;;
75520;SDS011;64102;48.628;9.002;2022-10-31T08:08:11;5.15;;;0.55;;
75520;SDS011;64102;48.628;9.002;2022-10-31T08:10:37;3.42;;;0.40;;
75520;SDS011;64102;48.628;9.002;2022-10-31T08:13:04;4.53;;;0.32;;
75520;SDS011;64102;48.628;9.002;2022-10-31T08:15:31;4.05;;;0.40;;
75520;SDS011;64102;48.628;9.002;2022-10-31T08:17:59;3.10;;;0.40;;
75520;SDS011;64102;48.628;9.002;2022-10-31T08:20:25;4.60;;;0.50;;
75520;SDS011;64102;48.628;9.002;2022-10-31T08:22:57;3.85;;;0.40;;
75520;SDS011;64102;48.628;9.002;2022-10-31T08:25:27;5.80;;;0.40;;
75520;SDS011;64102;48.628;9.002;2022-10-31T08:27:54;6.30;;;0.30;;
75520;SDS011;64102;48.628;9.002;2022-10-31T08:30:21;3.95;;;0.30;;
75520;SDS011;64102;48.628;9.002;2022-10-31T08:32:47;3.60;;;0.52;;
75520;SDS011;64102;48.628;9.002;2022-10-31T08:35:21;4.30;;;0.35;;
75520;SDS011;64102;48.628;9.002;2022-10-31T08:37:51;2.83;;;0.45;;
75520;SDS011;64102;48.628;9.002;2022-10-31T08:40:18;4.60;;;0.30;;
75520;SDS011;64102;48.628;9.002;2022-10-31T08:42:43;3.63;;;0.40;;
75520;SDS011;64102;48.628;9.002;2022-10-31T08:45:08;3.67;;;0.30;;
75520;SDS011;64102;48.628;9.002;2022-10-31T08:47:34;4.43;;;0.95;;
75520;SDS011;64102;48.628;9.002;2022-10-31T08:49:59;4.72;;;0.57;;
75520;SDS011;64102;48.628;9.002;2022-10-31T08:52:25;4.87;;;0.40;;
75520;SDS011;64102;48.628;9.002;2022-10-31T08:54:51;4.57;;;0.60;;
75520;SDS011;64102;48.628;9.002;2022-10-31T08:57:16;4.90;;;0.70;;
75520;SDS011;64102;48.628;9.002;2022-10-31T08:59:41;7.53;;;0.80;;
75520;SDS011;64102;48.628;9.002;2022-10-31T09:02:07;6.20;;;0.50;;
75520;SDS011;64102;48.628;9.002;2022-10-31T09:04:32;5.07;;;0.80;;
75520;SDS011;64102;48.628;9.002;2022-10-31T09:06:57;5.33;;;0.80;;
75520;SDS011;64102;48.628;9.002;2022-10-31T09:09:23;8.85;;;0.80;;
75520;SDS011;64102;48.628;9.002;2022-10-31T09:11:48;3.67;;;0.40;;
75520;SDS011;64102;48.628;9.002;2022-10-31T09:14:13;5.45;;;0.57;;
75520;SDS011;64102;48.628;9.002;2022-10-31T09:16:39;6.10;;;0.57;;
75520;SDS011;64102;48.628;9.002;2022-10-31T09:19:04;8.73;;;0.87;;
75520;SDS011;64102;48.628;9.002;2022-10-31T09:21:29;5.10;;;0.50;;
75520;SDS011;64102;48.628;9.002;2022-10-31T09:23:55;5.17;;;0.50;;
75520;SDS011;64102;48.628;9.002;2022-10-31T09:26:20;4.32;;;0.60;;
75520;SDS011;64102;48.628;9.002;2022-10-31T09:28:46;4.90;;;0.60;;
75520;SDS011;64102;48.628;9.002;2022-10-31T09:31:11;3.10;;;0.37;;
75520;SDS011;64102;48.628;9.002;2022-10-31T09:33:37;5.75;;;0.77;;
75520;SDS011;64102;48.628;9.002;2022-10-31T09:36:02;6.53;;;0.65;;
75520;SDS011;64102;48.628;9.002;2022-10-31T09:38:28;6.85;;;1.08;;
75520;SDS011;64102;48.628;9.002;2022-10-31T09:41:07;7.93;;;1.00;;
75520;SDS011;64102;48.628;9.002;2022-10-31T09:52:00;9.07;;;0.75;;
75520;SDS011;64102;48.628;9.002;2022-10-31T09:54:37;5.82;;;0.80;;
75520;SDS011;64102;48.628;9.002;2022-10-31T09:57:13;3.58;;;0.47;;
75520;SDS011;64102;48.628;9.002;2022-10-31T09:59:40;3.38;;;0.35;;
75520;SDS011;64102;48.628;9.002;2022-10-31T10:02:17;7.07;;;0.85;;
75520;SDS011;64102;48.628;9.002;2022-10-31T10:04:47;7.57;;;0.70;;
75520;SDS011;64102;48.628;9.002;2022-10-31T10:13:12;5.88;;;0.73;;
75520;SDS011;64102;48.628;9.002;2022-10-31T10:18:12;5.43;;;0.70;;
75520;SDS011;64102;48.628;9.002;2022-10-31T10:23:32;6.53;;;0.68;;
75520;SDS011;64102;48.628;9.002;2022-10-31T10:26:20;5.25;;;0.52;;
75520;SDS011;64102;48.628;9.002;2022-10-31T10:28:48;4.32;;;0.50;;
75520;SDS011;64102;48.628;9.002;2022-10-31T10:31:28;6.28;;;0.45;;
75520;SDS011;64102;48.628;9.002;2022-10-31T10:34:16;4.80;;;0.55;;
75520;SDS011;64102;48.628;9.002;2022-10-31T10:36:52;4.93;;;0.57;;
75520;SDS011;64102;48.628;9.002;2022-10-31T10:39:24;5.20;;;0.52;;
75520;SDS011;64102;48.628;9.002;2022-10-31T10:41:54;5.03;;;0.65;;
75520;SDS011;64102;48.628;9.002;2022-10-31T10:44:43;3.08;;;0.30;;
75520;SDS011;64102;48.628;9.002;2022-10-31T10:47:35;3.90;;;0.30;;
75520;SDS011;64102;48.628;9.002;2022-10-31T10:50:10;3.65;;;0.30;;
75520;SDS011;64102;48.628;9.002;2022-10-31T11:00:32;5.53;;;0.60;;
75520;SDS011;64102;48.628;9.002;2022-10-31T11:03:01;4.35;;;1.05;;
75520;SDS011;64102;48.628;9.002;2022-10-31T11:08:07;5.28;;;0.63;;
75520;SDS011;64102;48.628;9.002;2022-10-31T11:10:34;4.55;;;0.75;;
75520;SDS011;64102;48.628;9.002;2022-10-31T11:15:36;5.55;;;0.68;;
75520;SDS011;64102;48.628;9.002;2022-10-31T11:18:24;6.10;;;1.13;;
75520;SDS011;64102;48.628;9.002;2022-10-31T11:20:53;5.70;;;1.00;;
75520;SDS011;64102;48.628;9.002;2022-10-31T11:23:22;6.88;;;1.30;;
75520;SDS011;64102;48.628;9.002;2022-10-31T11:28:20;5.30;;;0.98;;
75520;SDS011;64102;48.628;9.002;2022-10-31T11:30:50;5.90;;;0.98;;
75520;SDS011;64102;48.628;9.002;2022-10-31T11:33:23;4.90;;;0.70;;
75520;SDS011;64102;48.628;9.002;2022-10-31T11:35:49;4.40;;;0.73;;
75520;SDS011;64102;48.628;9.002;2022-10-31T11:38:16;5.68;;;0.75;;
75520;SDS011;64102;48.628;9.002;2022-10-31T11:43:30;5.38;;;0.52;;
75520;SDS011;64102;48.628;9.002;2022-10-31T11:45:56;5.22;;;0.52;;
75520;SDS011;64102;48.628;9.002;2022-10-31T11:48:23;5.03;;;0.30;;
75520;SDS011;64102;48.628;9.002;2022-10-31T11:50:51;5.32;;;0.50;;
75520;SDS011;64102;48.628;9.002;2022-10-31T11:53:25;4.53;;;0.57;;
75520;SDS011;64102;48.628;9.002;2022-10-31T11:56:13;5.78;;;0.43;;
75520;SDS011;64102;48.628;9.002;2022-10-31T11:58:40;4.40;;;0.47;;
75520;SDS011;64102;48.628;9.002;2022-10-31T12:01:08;4.32;;;0.50;;
75520;SDS011;64102;48.628;9.002;2022-10-31T12:03:51;5.78;;;0.65;;
75520;SDS011;64102;48.628;9.002;2022-10-31T12:06:31;5.75;;;0.57;;
75520;SDS011;64102;48.628;9.002;2022-10-31T12:08:59;5.18;;;0.50;;
75520;SDS011;64102;48.628;9.002;2022-10-31T12:22:24;3.55;;;0.35;;
75520;SDS011;64102;48.628;9.002;2022-10-31T12:33:47;3.22;;;0.22;;
75520;SDS011;64102;48.628;9.002;2022-10-31T12:36:29;4.35;;;0.40;;
75520;SDS011;64102;48.628;9.002;2022-10-31T12:50:16;3.53;;;0.40;;
75520;SDS011;64102;48.628;9.002;2022-10-31T12:52:53;4.60;;;0.47;;
75520;SDS011;64102;48.628;9.002;2022-10-31T12:58:34;3.92;;;0.30;;
75520;SDS011;64102;48.628;9.002;2022-10-31T13:06:37;4.03;;;0.30;;
75520;SDS011;64102;48.628;9.002;2022-10-31T13:09:09;4.65;;;0.30;;
75520;SDS011;64102;48.628;9.002;2022-10-31T13:11:48;5.65;;;0.35;;
75520;SDS011;64102;48.628;9.002;2022-10-31T13:14:29;5.22;;;0.30;;
75520;SDS011;64102;48.628;9.002;2022-10-31T13:16:59;4.85;;;0.60;;
75520;SDS011;64102;48.628;9.002;2022-10-31T13:19:31;4.90;;;0.32;;
75520;SDS011;64102;48.628;9.002;2022-10-31T13:22:05;4.32;;;0.50;;
75520;SDS011;64102;48.628;9.002;2022-10-31T13:24:42;4.90;;;0.70;;
75520;SDS011;64102;48.628;9.002;2022-10-31T13:27:17;4.40;;;0.47;;
75520;SDS011;64102;48.628;9.002;2022-10-31T13:29:54;4.93;;;0.85;;
75520;SDS011;64102;48.628;9.002;2022-10-31T13:32:26;4.05;;;0.35;;
75520;SDS011;64102;48.628;9.002;2022-10-31T13:35:00;4.13;;;0.50;;
75520;SDS011;64102;48.628;9.002;2022-10-31T13:37:30;4.18;;;0.50;;
75520;SDS011;64102;48.628;9.002;2022-10-31T13:40:26;2.80;;;0.32;;
75520;SDS011;64102;48.628;9.002;2022-10-31T13:42:58;4.68;;;0.70;;
75520;SDS011;64102;48.628;9.002;2022-10-31T13:45:46;4.35;;;0.85;;
75520;SDS011;64102;48.628;9.002;2022-10-31T13:50:39;4.90;;;0.93;;
75520;SDS011;64102;48.628;9.002;2022-10-31T13:56:01;6.05;;;0.77;;
75520;SDS011;64102;48.628;9.002;2022-10-31T13:58:30;5.88;;;0.70;;
75520;SDS011;64102;48.628;9.002;2022-10-31T14:04:05;4.18;;;0.93;;
75520;SDS011;64102;48.628;9.002;2022-10-31T14:06:40;3.72;;;0.60;;
75520;SDS011;64102;48.628;9.002;2022-10-31T14:09:38;4.07;;;0.60;;
75520;SDS011;64102;48.628;9.002;2022-10-31T14:12:25;4.85;;;0.50;;
75520;SDS011;64102;48.628;9.002;2022-10-31T14:14:56;4.18;;;0.43;;
75520;SDS011;64102;48.628;9.002;2022-10-31T14:17:27;6.20;;;0.68;;
75520;SDS011;64102;48.628;9.002;2022-10-31T14:22:29;4.72;;;0.73;;
75520;SDS011;64102;48.628;9.002;2022-10-31T14:24:56;4.63;;;0.77;;
75520;SDS011;64102;48.628;9.002;2022-10-31T14:29:51;4.07;;;0.43;;
75520;SDS011;64102;48.628;9.002;2022-10-31T14:32:19;5.10;;;0.63;;
75520;SDS011;64102;48.628;9.002;2022-10-31T14:45:58;6.57;;;0.40;;
75520;SDS011;64102;48.628;9.002;2022-10-31T14:48:38;6.15;;;0.50;;
75520;SDS011;64102;48.628;9.002;2022-10-31T14:51:25;4.32;;;0.43;;
75520;SDS011;64102;48.628;9.002;2022-10-31T14:53:58;5.68;;;0.63;;
75520;SDS011;64102;48.628;9.002;2022-10-31T14:59:14;7.45;;;0.73;;
75520;SDS011;64102;48.628;9.002;2022-10-31T15:01:48;4.38;;;0.50;;
75520;SDS011;64102;48.628;9.002;2022-10-31T15:04:20;5.43;;;0.55;;
75520;SDS011;64102;48.628;9.002;2022-10-31T15:11:50;4.18;;;0.40;;
75520;SDS011;64102;48.628;9.002;2022-10-31T15:14:23;4.22;;;0.47;;
75520;SDS011;64102;48.628;9.002;2022-10-31T15:16:50;4.53;;;0.40;;
75520;SDS011;64102;48.628;9.002;2022-10-31T15:19:21;4.07;;;0.40;;
75520;SDS011;64102;48.628;9.002;2022-10-31T15:21:49;5.55;;;0.70;;
75520;SDS011;64102;48.628;9.002;2022-10-31T15:24:16;7.45;;;0.45;;
75520;SDS011;64102;48.628;9.002;2022-10-31T15:26:44;4.72;;;0.63;;
75520;SDS011;64102;48.628;9.002;2022-10-31T15:29:16;4.10;;;0.40;;
75520;SDS011;64102;48.628;9.002;2022-10-31T15:31:53;4.38;;;0.43;;
75520;SDS011;64102;48.628;9.002;2022-10-31T15:37:03;3.90;;;0.40;;
75520;SDS011;64102;48.628;9.002;2022-10-31T15:39:29;3.90;;;0.50;;
75520;SDS011;64102;48.628;9.002;2022-10-31T15:41:55;5.65;;;0.60;;
75520;SDS011;64102;48.628;9.002;2022-10-31T15:47:00;4.43;;;0.40;;
75520;SDS011;64102;48.628;9.002;2022-10-31T15:49:42;4.45;;;0.30;;
75520;SDS011;64102;48.628;9.002;2022-10-31T15:52:29;3.50;;;0.40;;
75520;SDS011;64102;48.628;9.002;2022-10-31T15:54:57;3.75;;;0.30;;
75520;SDS011;64102;48.628;9.002;2022-10-31T15:57:26;6.90;;;0.50;;
75520;SDS011;64102;48.628;9.002;2022-10-31T15:59:51;4.50;;;0.40;;
75520;SDS011;64102;48.628;9.002;2022-10-31T16:02:22;2.60;;;0.30;;
75520;SDS011;64102;48.628;9.002;2022-10-31T16:04:59;3.88;;;0.28;;
75520;SDS011;64102;48.628;9.002;2022-10-31T16:12:22;5.13;;;0.40;;
75520;SDS011;64102;48.628;9.002;2022-10-31T16:14:50;9.00;;;0.57;;
75520;SDS011;64102;48.628;9.002;2022-10-31T16:17:19;5.65;;;0.77;;
75520;SDS011;64102;48.628;9.002;2022-10-31T16:19:51;4.65;;;0.40;;
75520;SDS011;64102;48.628;9.002;2022-10-31T16:22:24;4.22;;;0.30;;
75520;SDS011;64102;48.628;9.002;2022-10-31T16:27:36;3.92;;;0.40;;
75520;SDS011;64102;48.628;9.002;2022-10-31T16:30:28;5.11;;;0.40;;
75520;SDS011;64102;48.628;9.002;2022-10-31T16:33:10;4.78;;;0.60;;
75520;SDS011;64102;48.628;9.002;2022-10-31T16:35:44;4.53;;;0.57;;
75520;SDS011;64102;48.628;9.002;2022-10-31T16:38:10;3.78;;;0.50;;
75520;SDS011;64102;48.628;9.002;2022-10-31T16:40:37;6.35;;;0.40;;
75520;SDS011;64102;48.628;9.002;2022-10-31T16:43:02;4.25;;;0.43;;
75520;SDS011;64102;48.628;9.002;2022-10-31T16:45:29;4.35;;;0.40;;
75520;SDS011;64102;48.628;9.002;2022-10-31T16:48:08;3.75;;;0.50;;
75520;SDS011;64102;48.628;9.002;2022-10-31T16:50:36;4.10;;;0.30;;
75520;SDS011;64102;48.628;9.002;2022-10-31T16:53:02;4.63;;;0.30;;
75520;SDS011;64102;48.628;9.002;2022-10-31T16:55:27;3.88;;;0.40;;
75520;SDS011;64102;48.628;9.002;2022-10-31T16:57:54;3.13;;;0.40;;
75520;SDS011;64102;48.628;9.002;2022-10-31T17:00:22;3.63;;;0.35;;
75520;SDS011;64102;48.628;9.002;2022-10-31T17:02:50;3.80;;;0.40;;
75520;SDS011;64102;48.628;9.002;2022-10-31T17:05:17;4.13;;;0.30;;
75520;SDS011;64102;48.628;9.002;2022-10-31T17:07:43;4.35;;;0.35;;
75520;SDS011;64102;48.628;9.002;2022-10-31T17:10:09;2.67;;;0.20;;
75520;SDS011;64102;48.628;9.002;2022-10-31T17:12:36;2.63;;;0.20;;
75520;SDS011;64102;48.628;9.002;2022-10-31T17:15:04;3.05;;;0.20;;
75520;SDS011;64102;48.628;9.002;2022-10-31T17:17:31;3.25;;;0.20;;
75520;SDS011;64102;48.628;9.002;2022-10-31T17:19:57;5.15;;;0.52;;
75520;SDS011;64102;48.628;9.002;2022-10-31T17:22:22;2.88;;;0.20;;
75520;SDS011;64102;48.628;9.002;2022-10-31T17:24:47;5.05;;;0.50;;
75520;SDS011;64102;48.628;9.002;2022-10-31T17:27:13;4.97;;;0.40;;
75520;SDS011;64102;48.628;9.002;2022-10-31T17:29:38;6.85;;;0.90;;
75520;SDS011;64102;48.628;9.002;2022-10-31T17:32:03;6.07;;;0.70;;
75520;SDS011;64102;48.628;9.002;2022-10-31T17:34:29;6.28;;;0.70;;
75520;SDS011;64102;48.628;9.002;2022-10-31T17:36:55;5.88;;;0.75;;
75520;SDS011;64102;48.628;9.002;2022-10-31T17:39:20;4.93;;;0.40;;
75520;SDS011;64102;48.628;9.002;2022-10-31T17:41:50;9.02;;;1.70;;
75520;SDS011;64102;48.628;9.002;2022-10-31T17:44:16;7.93;;;1.08;;
75520;SDS011;64102;48.628;9.002;2022-10-31T17:46:42;8.90;;;1.13;;
75520;SDS011;64102;48.628;9.002;2022-10-31T17:49:09;7.05;;;0.70;;
75520;SDS011;64102;48.628;9.002;2022-10-31T17:51:35;5.00;;;0.68;;